• Join FlightAware (Why Join?)
  • Login
  • US Flag 
04:04PM EST


 

Airport Tracker/Info


-or-


 

Live Flight TrackerFlight Track Log ✈ FDX1421 ✈ 17-Jul-2013 ✈ KMEM - KATL

Flight Track Log - Related Links

Times and Time Zones

All times are in EDT time to prevent confusion due to time zone crossing. See the FDX1421 flight status page for this flight to view local times or setup timezone preferences in your user account.

Time Position Orientation Groundspeed Altitude Reporting Facility
EDT Latitude Longitude Course Direction KTS MPH feet Rate Location/Type
04:11AM 35.0167 -89.9667 180° South 173 199 1,100  Level KMEM
04:12AM 35.0000 -89.9667 180° South 176 203 1,700 1,780 Climbing KMEM
04:13AM 34.9333 -89.9500 168° South 255 293 3,800 2,672 Climbing KMEM
04:14AM 34.8833 -89.8833 132° Southeast 277 319 7,000 3,083 Climbing KMEM
04:15AM 34.8581 -89.8206 116° Southeast 272 313 9,400 2,037 Climbing Memphis Center
04:16AM 34.8283 -89.7169 109° East 302 348 10,700 1,450 Climbing Memphis Center
04:17AM 34.8006 -89.6058 107° East 354 407 12,300 2,000 Climbing Memphis Center
04:18AM 34.7683 -89.4797 107° East 386 444 14,700 2,250 Climbing Memphis Center
04:19AM 34.7342 -89.3514 108° East 399 459 16,800 1,900 Climbing Memphis Center
04:20AM 34.7036 -89.2128 105° East 406 467 18,500 1,800 Climbing Memphis Center
04:21AM 34.6875 -89.0589 97° East 413 475 20,400 1,700 Climbing Memphis Center
04:22AM 34.6733 -88.9153 97° East 427 491 21,900 1,450 Climbing Memphis Center
04:23AM 34.6569 -88.7614 97° East 438 504 23,300 1,500 Climbing Memphis Center
04:24AM 34.6444 -88.6103 96° East 454 522 24,900 1,400 Climbing Memphis Center
04:25AM 34.6300 -88.4767 97° East 454 522 26,100 1,200 Climbing Memphis Center
04:26AM 34.6128 -88.3181 97° East 454 522 27,300 1,400 Climbing Memphis Center
04:27AM 34.5931 -88.1344 97° East 483 556 28,900 850 Climbing Memphis Center
04:28AM 34.5756 -87.9761 98° East 482 555 29,000 50 Climbing Memphis Center
04:29AM 34.5578 -87.8228 98° East 470 541 29,000  Level Memphis Center
04:31AM 34.5217 -87.4347 96° East 468 539 29,000  Level Atlanta Center
04:32AM 34.5003 -87.2978 101° East 468 539 29,000  Level Atlanta Center
04:33AM 34.4814 -87.1433 98° East 468 539 29,000  Level Atlanta Center
04:34AM 34.4644 -86.9889 98° East 468 539 29,000  Level Atlanta Center
04:35AM 34.4472 -86.8347 98° East 468 539 29,000  Level Atlanta Center
04:36AM 34.4086 -86.6900 108° East 461 531 29,000  Level Atlanta Center
04:37AM 34.3617 -86.5425 111° Southeast 456 525 29,000  Level Atlanta Center
04:38AM 34.3122 -86.3978 112° Southeast 461 531 29,000  Level Atlanta Center
04:39AM 34.2647 -86.2531 112° Southeast 461 531 29,000 -500 Level Atlanta Center
04:40AM 34.2192 -86.1164 112° Southeast 455 524 28,000 -1,700 Descending Atlanta Center
04:41AM 34.1756 -85.9847 112° Southeast 443 510 25,600 -2,300 Descending Atlanta Center
04:42AM 34.1314 -85.8558 112° Southeast 425 489 23,400 -2,150 Descending Atlanta Center
04:43AM 34.0894 -85.7369 113° Southeast 394 453 21,300 -1,969 Descending Atlanta Center
04:48AM 33.8770 -85.1160 113° Southeast 301 346 10,700 -1,779 Descending FlightAware
04:49AM 33.8510 -85.0540 117° Southeast 278 320 10,300 -857 Descending FlightAware
04:50AM 33.8340 -85.0200 121° Southeast 275 316 9,700 -1,385 Descending FlightAware
04:50AM 33.8180 -84.9860 120° Southeast 274 315 9,100 -1,655 Descending FlightAware
04:51AM 33.7970 -84.9450 122° Southeast 270 311 8,100 -1,731 Descending FlightAware
04:51AM 33.7830 -84.9190 123° Southeast 262 302 7,600 -1,625 Descending FlightAware
04:51AM 33.7660 -84.8850 121° Southeast 260 299 6,800 -1,886 Descending FlightAware
04:52AM 33.7410 -84.8310 119° Southeast 257 296 5,400 -2,000 Descending FlightAware
04:52AM 33.7340 -84.8160 119° Southeast 257 296 5,000 -1,050 Descending FlightAware
04:53AM 33.7180 -84.7810 119° Southeast 253 291 4,700 -346 Descending FlightAware
04:53AM 33.7060 -84.7520 116° Southeast 230 265 4,700  Level FlightAware
04:54AM 33.6910 -84.7230 122° Southeast 222 255 4,700  Level FlightAware
04:54AM 33.6850 -84.7090 117° Southeast 221 254 4,700 -300 Level FlightAware
04:54AM 33.6770 -84.6770 107° East 221 254 4,500 -682 Descending FlightAware
04:55AM 33.6710 -84.6570 110° East 222 255 4,200 -955 Descending FlightAware
04:55AM 33.6630 -84.6250 107° East 204 235 3,800 -750 Descending FlightAware
04:55AM 33.6600 -84.6140 108° East 194 223 3,700 -1,200 Descending FlightAware
04:56AM 33.6520 -84.5840 108° East 191 220 3,000 -1,467 Descending FlightAware
04:56AM 33.6500 -84.5680 99° East 189 217 2,600 -947 Descending FlightAware
04:57AM 33.6490 -84.5270 92° East 175 201 2,100 -762 Descending FlightAware
04:57AM 33.6490 -84.5050 90° East 151 174 1,800  Descending FlightAware
04:58AM 33.6500 -84.5300 273° West 179 206 2,100 -706 Climbing FlightAware
04:58AM 33.6500 -84.4520 90° East 143 165 1,000 -1,448 Descending FlightAware
04:59AM 33.6500 -84.4330 90° East 141 162 700 -818 Descending FlightAware
04:59AM 33.6500 -84.4170 90° East 17 20 -875 Descending FlightAware
05:02AM 33.6550 -84.4160 North 2 2  Level FlightAware
05:05AM 33.6333 -84.4167 112° Southeast  Level FlightAware Approximate
05:06AM 33.6367 -84.4279 112° Southeast  Level Estimated
05:07AM 33.6367 -84.4279 112° Southeast  Level Estimated